sensor_id;sensor_type;location;lat;lon;timestamp;pressure;altitude;pressure_sealevel;temperature;humidity
74336;BME280;62755;-33.398;-70.572;2023-06-04T00:00:18;93632.63;;;15.45;69.47
74336;BME280;62755;-33.398;-70.572;2023-06-04T00:03:07;93645.84;;;15.56;68.80
74336;BME280;62755;-33.398;-70.572;2023-06-04T00:05:58;93636.97;;;15.55;69.16
74336;BME280;62755;-33.398;-70.572;2023-06-04T00:08:47;93637.69;;;15.43;69.16
74336;BME280;62755;-33.398;-70.572;2023-06-04T00:11:37;93638.53;;;15.40;69.61
74336;BME280;62755;-33.398;-70.572;2023-06-04T00:14:26;93633.13;;;15.40;69.31
74336;BME280;62755;-33.398;-70.572;2023-06-04T00:17:15;93642.28;;;15.30;70.09
74336;BME280;62755;-33.398;-70.572;2023-06-04T00:20:05;93640.63;;;15.20;69.96
74336;BME280;62755;-33.398;-70.572;2023-06-04T00:22:56;93637.59;;;15.18;69.33
74336;BME280;62755;-33.398;-70.572;2023-06-04T00:25:46;93618.44;;;15.13;69.58
74336;BME280;62755;-33.398;-70.572;2023-06-04T00:28:35;93617.50;;;15.19;69.61
74336;BME280;62755;-33.398;-70.572;2023-06-04T00:31:24;93615.97;;;15.18;69.59
74336;BME280;62755;-33.398;-70.572;2023-06-04T00:34:13;93625.06;;;15.24;69.35
74336;BME280;62755;-33.398;-70.572;2023-06-04T00:37:03;93631.34;;;15.21;69.32
74336;BME280;62755;-33.398;-70.572;2023-06-04T00:39:54;93627.44;;;15.22;69.06
74336;BME280;62755;-33.398;-70.572;2023-06-04T00:42:44;93632.28;;;15.15;69.88
74336;BME280;62755;-33.398;-70.572;2023-06-04T00:45:33;93637.13;;;15.07;69.58
74336;BME280;62755;-33.398;-70.572;2023-06-04T00:48:23;93636.91;;;15.14;69.53
74336;BME280;62755;-33.398;-70.572;2023-06-04T00:51:14;93627.63;;;15.15;69.72
74336;BME280;62755;-33.398;-70.572;2023-06-04T00:54:04;93624.09;;;15.02;69.94
74336;BME280;62755;-33.398;-70.572;2023-06-04T00:56:57;93625.06;;;14.95;70.20
74336;BME280;62755;-33.398;-70.572;2023-06-04T00:59:46;93631.75;;;15.20;69.15
74336;BME280;62755;-33.398;-70.572;2023-06-04T01:02:38;93628.56;;;15.09;69.98
74336;BME280;62755;-33.398;-70.572;2023-06-04T01:05:35;93629.69;;;15.11;69.91
74336;BME280;62755;-33.398;-70.572;2023-06-04T01:08:27;93632.63;;;15.01;70.24
74336;BME280;62755;-33.398;-70.572;2023-06-04T01:11:16;93629.69;;;15.11;69.93
74336;BME280;62755;-33.398;-70.572;2023-06-04T01:14:09;93636.00;;;15.05;70.18
74336;BME280;62755;-33.398;-70.572;2023-06-04T01:17:01;93632.38;;;15.11;69.84
74336;BME280;62755;-33.398;-70.572;2023-06-04T01:20:06;93636.75;;;15.21;69.22
74336;BME280;62755;-33.398;-70.572;2023-06-04T01:23:14;93615.66;;;15.00;69.67
74336;BME280;62755;-33.398;-70.572;2023-06-04T01:26:04;93619.84;;;14.72;70.65
74336;BME280;62755;-33.398;-70.572;2023-06-04T01:28:54;93611.13;;;14.97;70.03
74336;BME280;62755;-33.398;-70.572;2023-06-04T01:31:45;93587.63;;;15.10;69.50
74336;BME280;62755;-33.398;-70.572;2023-06-04T01:34:44;93595.41;;;15.08;69.36
74336;BME280;62755;-33.398;-70.572;2023-06-04T01:37:33;93603.00;;;15.13;69.32
74336;BME280;62755;-33.398;-70.572;2023-06-04T01:40:23;93599.09;;;15.14;69.33
74336;BME280;62755;-33.398;-70.572;2023-06-04T01:43:13;93586.63;;;15.04;69.51
74336;BME280;62755;-33.398;-70.572;2023-06-04T01:46:03;93593.03;;;15.10;69.35
74336;BME280;62755;-33.398;-70.572;2023-06-04T01:48:54;93584.91;;;15.10;69.61
74336;BME280;62755;-33.398;-70.572;2023-06-04T01:51:43;93587.63;;;15.10;69.66
74336;BME280;62755;-33.398;-70.572;2023-06-04T01:54:32;93578.34;;;15.11;69.46
74336;BME280;62755;-33.398;-70.572;2023-06-04T01:57:22;93582.22;;;15.10;69.89
74336;BME280;62755;-33.398;-70.572;2023-06-04T02:00:12;93569.47;;;15.11;69.85
74336;BME280;62755;-33.398;-70.572;2023-06-04T02:03:02;93565.25;;;15.10;69.38
74336;BME280;62755;-33.398;-70.572;2023-06-04T02:05:53;93535.69;;;14.90;69.71
74336;BME280;62755;-33.398;-70.572;2023-06-04T02:08:42;93570.09;;;15.02;69.80
74336;BME280;62755;-33.398;-70.572;2023-06-04T02:11:31;93566.88;;;15.07;70.12
74336;BME280;62755;-33.398;-70.572;2023-06-04T02:14:21;93572.94;;;15.11;69.70
74336;BME280;62755;-33.398;-70.572;2023-06-04T02:17:10;93569.91;;;15.09;70.10
74336;BME280;62755;-33.398;-70.572;2023-06-04T02:20:00;93570.28;;;14.95;70.05
74336;BME280;62755;-33.398;-70.572;2023-06-04T02:22:58;93560.44;;;14.88;70.76
74336;BME280;62755;-33.398;-70.572;2023-06-04T02:25:47;93563.22;;;14.85;70.82
74336;BME280;62755;-33.398;-70.572;2023-06-04T02:28:37;93561.47;;;14.78;71.07
74336;BME280;62755;-33.398;-70.572;2023-06-04T02:31:26;93555.97;;;14.82;70.76
74336;BME280;62755;-33.398;-70.572;2023-06-04T02:34:15;93557.50;;;14.83;70.72
74336;BME280;62755;-33.398;-70.572;2023-06-04T02:37:05;93553.59;;;14.84;70.71
74336;BME280;62755;-33.398;-70.572;2023-06-04T02:39:56;93548.84;;;14.88;70.93
74336;BME280;62755;-33.398;-70.572;2023-06-04T02:42:45;93548.41;;;14.77;71.12
74336;BME280;62755;-33.398;-70.572;2023-06-04T02:45:35;93538.16;;;14.84;70.44
74336;BME280;62755;-33.398;-70.572;2023-06-04T02:48:24;93536.94;;;14.73;70.71
74336;BME280;62755;-33.398;-70.572;2023-06-04T02:51:13;93519.22;;;14.72;70.99
74336;BME280;62755;-33.398;-70.572;2023-06-04T02:54:03;93510.13;;;14.66;71.11
74336;BME280;62755;-33.398;-70.572;2023-06-04T02:56:54;93529.16;;;14.75;70.64
74336;BME280;62755;-33.398;-70.572;2023-06-04T02:59:43;93523.25;;;14.35;71.50
74336;BME280;62755;-33.398;-70.572;2023-06-04T03:02:33;93532.59;;;14.47;71.67
74336;BME280;62755;-33.398;-70.572;2023-06-04T03:05:22;93535.16;;;14.66;70.72
74336;BME280;62755;-33.398;-70.572;2023-06-04T03:08:13;93531.44;;;14.76;70.88
74336;BME280;62755;-33.398;-70.572;2023-06-04T03:11:02;93536.75;;;14.80;71.20
74336;BME280;62755;-33.398;-70.572;2023-06-04T03:13:54;93540.06;;;14.71;71.77
74336;BME280;62755;-33.398;-70.572;2023-06-04T03:16:43;93549.44;;;14.67;72.13
74336;BME280;62755;-33.398;-70.572;2023-06-04T03:19:32;93541.16;;;14.74;71.28
74336;BME280;62755;-33.398;-70.572;2023-06-04T03:22:22;93542.66;;;14.75;71.22
74336;BME280;62755;-33.398;-70.572;2023-06-04T03:25:11;93544.69;;;14.71;71.71
74336;BME280;62755;-33.398;-70.572;2023-06-04T03:28:00;93548.59;;;14.70;71.84
74336;BME280;62755;-33.398;-70.572;2023-06-04T03:30:51;93553.91;;;14.73;71.39
74336;BME280;62755;-33.398;-70.572;2023-06-04T03:33:41;93549.78;;;14.53;71.97
74336;BME280;62755;-33.398;-70.572;2023-06-04T03:36:30;93557.84;;;14.69;71.55
74336;BME280;62755;-33.398;-70.572;2023-06-04T03:39:25;93556.16;;;14.75;71.08
74336;BME280;62755;-33.398;-70.572;2023-06-04T03:42:15;93556.25;;;14.71;71.32
74336;BME280;62755;-33.398;-70.572;2023-06-04T03:45:06;93557.19;;;14.65;71.33
74336;BME280;62755;-33.398;-70.572;2023-06-04T03:47:57;93549.53;;;14.63;71.38
74336;BME280;62755;-33.398;-70.572;2023-06-04T03:50:46;93540.53;;;14.54;71.87
74336;BME280;62755;-33.398;-70.572;2023-06-04T03:53:36;93537.31;;;14.27;72.64
74336;BME280;62755;-33.398;-70.572;2023-06-04T03:56:25;93503.63;;;14.19;71.55
74336;BME280;62755;-33.398;-70.572;2023-06-04T03:59:15;93522.50;;;14.35;71.77
74336;BME280;62755;-33.398;-70.572;2023-06-04T04:02:04;93519.53;;;14.29;71.38
74336;BME280;62755;-33.398;-70.572;2023-06-04T04:04:55;93517.84;;;14.35;70.36
74336;BME280;62755;-33.398;-70.572;2023-06-04T04:07:44;93513.47;;;14.41;70.39
74336;BME280;62755;-33.398;-70.572;2023-06-04T04:10:34;93519.88;;;14.47;69.89
74336;BME280;62755;-33.398;-70.572;2023-06-04T04:13:23;93508.50;;;14.40;70.06
74336;BME280;62755;-33.398;-70.572;2023-06-04T04:16:12;93495.19;;;14.17;69.59
74336;BME280;62755;-33.398;-70.572;2023-06-04T04:19:02;93509.00;;;14.19;70.16
74336;BME280;62755;-33.398;-70.572;2023-06-04T04:21:53;93503.78;;;14.11;70.43
74336;BME280;62755;-33.398;-70.572;2023-06-04T04:24:42;93520.97;;;14.34;70.21
74336;BME280;62755;-33.398;-70.572;2023-06-04T04:27:31;93535.97;;;14.51;70.04
74336;BME280;62755;-33.398;-70.572;2023-06-04T04:30:25;93536.13;;;14.60;68.90
74336;BME280;62755;-33.398;-70.572;2023-06-04T04:33:15;93533.22;;;14.67;68.81
74336;BME280;62755;-33.398;-70.572;2023-06-04T04:36:04;93504.56;;;14.57;69.10
74336;BME280;62755;-33.398;-70.572;2023-06-04T04:38:57;93478.56;;;14.50;69.75
74336;BME280;62755;-33.398;-70.572;2023-06-04T04:41:46;93463.41;;;14.40;69.48
74336;BME280;62755;-33.398;-70.572;2023-06-04T04:44:35;93463.72;;;14.42;69.06
74336;BME280;62755;-33.398;-70.572;2023-06-04T04:47:25;93461.63;;;14.34;69.13
74336;BME280;62755;-33.398;-70.572;2023-06-04T04:50:14;93468.88;;;14.37;69.23
74336;BME280;62755;-33.398;-70.572;2023-06-04T04:53:03;93465.66;;;14.26;69.69
74336;BME280;62755;-33.398;-70.572;2023-06-04T04:55:54;93460.56;;;14.15;69.23
74336;BME280;62755;-33.398;-70.572;2023-06-04T04:58:43;93456.56;;;14.20;68.97
74336;BME280;62755;-33.398;-70.572;2023-06-04T05:01:32;93462.91;;;14.13;68.30
74336;BME280;62755;-33.398;-70.572;2023-06-04T05:04:22;93468.03;;;14.24;68.39
74336;BME280;62755;-33.398;-70.572;2023-06-04T05:07:11;93470.06;;;14.36;68.21
74336;BME280;62755;-33.398;-70.572;2023-06-04T05:10:00;93468.56;;;14.35;68.06
74336;BME280;62755;-33.398;-70.572;2023-06-04T05:12:55;93469.84;;;14.43;67.82
74336;BME280;62755;-33.398;-70.572;2023-06-04T05:15:45;93464.84;;;14.29;67.91
74336;BME280;62755;-33.398;-70.572;2023-06-04T05:18:36;93460.47;;;14.19;68.31
74336;BME280;62755;-33.398;-70.572;2023-06-04T05:21:27;93469.88;;;14.27;68.34
74336;BME280;62755;-33.398;-70.572;2023-06-04T05:24:17;93472.09;;;14.32;68.20
74336;BME280;62755;-33.398;-70.572;2023-06-04T05:27:06;93475.44;;;14.20;68.42
74336;BME280;62755;-33.398;-70.572;2023-06-04T05:29:58;93483.81;;;14.09;67.98
74336;BME280;62755;-33.398;-70.572;2023-06-04T05:32:47;93471.78;;;13.65;68.65
74336;BME280;62755;-33.398;-70.572;2023-06-04T05:35:37;93491.66;;;13.71;68.46
74336;BME280;62755;-33.398;-70.572;2023-06-04T05:38:28;93470.44;;;13.57;68.30
74336;BME280;62755;-33.398;-70.572;2023-06-04T05:41:17;93493.47;;;13.58;68.12
74336;BME280;62755;-33.398;-70.572;2023-06-04T05:44:10;93486.25;;;13.55;67.90
74336;BME280;62755;-33.398;-70.572;2023-06-04T05:47:01;93486.34;;;13.52;68.09
74336;BME280;62755;-33.398;-70.572;2023-06-04T05:49:50;93500.09;;;13.73;67.87
74336;BME280;62755;-33.398;-70.572;2023-06-04T05:52:40;93508.25;;;13.70;67.60
74336;BME280;62755;-33.398;-70.572;2023-06-04T05:55:29;93495.91;;;13.53;67.68
74336;BME280;62755;-33.398;-70.572;2023-06-04T05:58:18;93492.75;;;13.58;67.63
74336;BME280;62755;-33.398;-70.572;2023-06-04T06:01:08;93497.88;;;13.68;66.64
74336;BME280;62755;-33.398;-70.572;2023-06-04T06:03:59;93504.03;;;13.69;67.07
74336;BME280;62755;-33.398;-70.572;2023-06-04T06:06:48;93494.59;;;13.77;67.03
74336;BME280;62755;-33.398;-70.572;2023-06-04T06:09:37;93493.00;;;13.79;66.53
74336;BME280;62755;-33.398;-70.572;2023-06-04T06:12:27;93486.75;;;13.82;66.91
74336;BME280;62755;-33.398;-70.572;2023-06-04T06:15:16;93490.31;;;13.79;66.82
74336;BME280;62755;-33.398;-70.572;2023-06-04T06:18:05;93488.78;;;13.94;66.49
74336;BME280;62755;-33.398;-70.572;2023-06-04T06:20:56;93494.09;;;13.98;66.41
74336;BME280;62755;-33.398;-70.572;2023-06-04T06:23:46;93488.13;;;13.90;66.01
74336;BME280;62755;-33.398;-70.572;2023-06-04T06:26:35;93483.06;;;13.76;66.91
74336;BME280;62755;-33.398;-70.572;2023-06-04T06:29:24;93485.66;;;13.80;66.66
74336;BME280;62755;-33.398;-70.572;2023-06-04T06:32:14;93466.38;;;13.65;66.95
74336;BME280;62755;-33.398;-70.572;2023-06-04T06:35:03;93490.81;;;13.90;66.68
74336;BME280;62755;-33.398;-70.572;2023-06-04T06:37:54;93490.13;;;14.02;66.68
74336;BME280;62755;-33.398;-70.572;2023-06-04T06:40:43;93492.69;;;13.93;66.05
74336;BME280;62755;-33.398;-70.572;2023-06-04T06:43:33;93488.03;;;13.94;66.29
74336;BME280;62755;-33.398;-70.572;2023-06-04T06:46:22;93478.34;;;13.96;66.06
74336;BME280;62755;-33.398;-70.572;2023-06-04T06:49:11;93475.66;;;13.96;64.60
74336;BME280;62755;-33.398;-70.572;2023-06-04T06:52:01;93481.03;;;13.96;64.43
74336;BME280;62755;-33.398;-70.572;2023-06-04T06:54:52;93485.91;;;14.01;64.29
74336;BME280;62755;-33.398;-70.572;2023-06-04T06:57:41;93484.75;;;14.02;64.17
74336;BME280;62755;-33.398;-70.572;2023-06-04T07:00:30;93485.22;;;14.13;64.03
74336;BME280;62755;-33.398;-70.572;2023-06-04T07:03:20;93483.16;;;14.05;64.22
74336;BME280;62755;-33.398;-70.572;2023-06-04T07:06:09;93484.56;;;14.09;63.84
74336;BME280;62755;-33.398;-70.572;2023-06-04T07:08:58;93483.88;;;14.05;64.73
74336;BME280;62755;-33.398;-70.572;2023-06-04T07:11:49;93478.00;;;13.94;64.42
74336;BME280;62755;-33.398;-70.572;2023-06-04T07:14:38;93482.06;;;13.86;64.38
74336;BME280;62755;-33.398;-70.572;2023-06-04T07:17:28;93476.84;;;13.79;64.89
74336;BME280;62755;-33.398;-70.572;2023-06-04T07:20:17;93472.47;;;13.69;65.52
74336;BME280;62755;-33.398;-70.572;2023-06-04T07:23:06;93467.50;;;13.68;65.57
74336;BME280;62755;-33.398;-70.572;2023-06-04T07:25:55;93464.69;;;13.55;65.39
74336;BME280;62755;-33.398;-70.572;2023-06-04T07:28:46;93454.69;;;13.56;66.00
74336;BME280;62755;-33.398;-70.572;2023-06-04T07:31:36;93446.41;;;13.63;66.09
74336;BME280;62755;-33.398;-70.572;2023-06-04T07:34:25;93445.66;;;13.62;65.57
74336;BME280;62755;-33.398;-70.572;2023-06-04T07:37:16;93428.47;;;13.56;66.59
74336;BME280;62755;-33.398;-70.572;2023-06-04T07:40:06;93437.91;;;13.64;67.89
74336;BME280;62755;-33.398;-70.572;2023-06-04T07:42:55;93428.75;;;13.62;68.84
74336;BME280;62755;-33.398;-70.572;2023-06-04T07:45:46;93434.81;;;13.66;67.55
74336;BME280;62755;-33.398;-70.572;2023-06-04T07:48:36;93430.59;;;13.65;69.97
74336;BME280;62755;-33.398;-70.572;2023-06-04T07:51:25;93427.06;;;13.68;71.15
74336;BME280;62755;-33.398;-70.572;2023-06-04T07:54:14;93430.34;;;13.59;73.14
74336;BME280;62755;-33.398;-70.572;2023-06-04T07:57:04;93436.72;;;13.49;73.45
74336;BME280;62755;-33.398;-70.572;2023-06-04T07:59:53;93432.94;;;13.47;74.08
74336;BME280;62755;-33.398;-70.572;2023-06-04T08:02:45;93433.88;;;13.40;74.44
74336;BME280;62755;-33.398;-70.572;2023-06-04T08:05:35;93423.09;;;13.40;73.14
74336;BME280;62755;-33.398;-70.572;2023-06-04T08:08:24;93423.44;;;13.42;73.05
74336;BME280;62755;-33.398;-70.572;2023-06-04T08:11:14;93420.06;;;13.54;71.08
74336;BME280;62755;-33.398;-70.572;2023-06-04T08:14:03;93418.22;;;13.51;71.10
74336;BME280;62755;-33.398;-70.572;2023-06-04T08:16:53;93399.09;;;13.46;71.42
74336;BME280;62755;-33.398;-70.572;2023-06-04T08:19:44;93406.25;;;13.52;71.70
74336;BME280;62755;-33.398;-70.572;2023-06-04T08:22:33;93418.13;;;13.55;70.41
74336;BME280;62755;-33.398;-70.572;2023-06-04T08:25:22;93396.66;;;13.51;70.40
74336;BME280;62755;-33.398;-70.572;2023-06-04T08:28:13;93386.22;;;13.37;69.36
74336;BME280;62755;-33.398;-70.572;2023-06-04T08:31:03;93383.38;;;13.44;68.08
74336;BME280;62755;-33.398;-70.572;2023-06-04T08:33:52;93395.50;;;13.36;67.50
74336;BME280;62755;-33.398;-70.572;2023-06-04T08:36:43;93403.72;;;13.45;66.87
74336;BME280;62755;-33.398;-70.572;2023-06-04T08:39:33;93403.06;;;13.57;66.46
74336;BME280;62755;-33.398;-70.572;2023-06-04T08:42:26;93409.03;;;13.49;66.63
74336;BME280;62755;-33.398;-70.572;2023-06-04T08:45:17;93416.78;;;13.47;67.30
74336;BME280;62755;-33.398;-70.572;2023-06-04T08:48:10;93411.97;;;13.54;67.27
74336;BME280;62755;-33.398;-70.572;2023-06-04T08:51:00;93407.63;;;13.44;67.84
74336;BME280;62755;-33.398;-70.572;2023-06-04T08:53:52;93414.09;;;13.63;67.63
74336;BME280;62755;-33.398;-70.572;2023-06-04T08:56:44;93414.50;;;13.45;67.74
74336;BME280;62755;-33.398;-70.572;2023-06-04T08:59:34;93401.13;;;13.58;67.34
74336;BME280;62755;-33.398;-70.572;2023-06-04T09:02:27;93400.69;;;13.59;66.10
74336;BME280;62755;-33.398;-70.572;2023-06-04T09:05:20;93397.00;;;13.69;65.58
74336;BME280;62755;-33.398;-70.572;2023-06-04T09:08:11;93396.31;;;13.33;65.31
74336;BME280;62755;-33.398;-70.572;2023-06-04T09:11:05;93388.91;;;13.21;64.98
74336;BME280;62755;-33.398;-70.572;2023-06-04T09:13:59;93382.84;;;13.17;65.46
74336;BME280;62755;-33.398;-70.572;2023-06-04T09:16:49;93369.34;;;13.01;64.74
74336;BME280;62755;-33.398;-70.572;2023-06-04T09:19:38;93365.69;;;12.91;64.68
74336;BME280;62755;-33.398;-70.572;2023-06-04T09:22:34;93363.97;;;13.01;64.09
74336;BME280;62755;-33.398;-70.572;2023-06-04T09:25:25;93351.00;;;12.96;64.12
74336;BME280;62755;-33.398;-70.572;2023-06-04T09:28:16;93365.31;;;13.09;64.06
74336;BME280;62755;-33.398;-70.572;2023-06-04T09:31:07;93359.78;;;13.16;64.73
74336;BME280;62755;-33.398;-70.572;2023-06-04T09:33:57;93364.19;;;13.26;64.93
74336;BME280;62755;-33.398;-70.572;2023-06-04T09:36:46;93358.56;;;13.01;65.59
74336;BME280;62755;-33.398;-70.572;2023-06-04T09:39:36;93351.28;;;13.17;65.10
74336;BME280;62755;-33.398;-70.572;2023-06-04T09:42:25;93339.09;;;13.29;64.36
74336;BME280;62755;-33.398;-70.572;2023-06-04T09:45:27;93354.56;;;13.41;64.07
74336;BME280;62755;-33.398;-70.572;2023-06-04T09:48:20;93359.13;;;13.44;63.77
74336;BME280;62755;-33.398;-70.572;2023-06-04T09:51:10;93373.75;;;13.43;63.78
74336;BME280;62755;-33.398;-70.572;2023-06-04T09:54:01;93377.66;;;13.42;63.39
74336;BME280;62755;-33.398;-70.572;2023-06-04T09:56:50;93382.69;;;13.40;63.74
74336;BME280;62755;-33.398;-70.572;2023-06-04T09:59:40;93393.03;;;13.26;64.38
74336;BME280;62755;-33.398;-70.572;2023-06-04T10:02:32;93400.44;;;13.21;64.37
74336;BME280;62755;-33.398;-70.572;2023-06-04T10:05:21;93387.88;;;13.15;63.41
74336;BME280;62755;-33.398;-70.572;2023-06-04T10:08:13;93398.31;;;13.13;62.18
74336;BME280;62755;-33.398;-70.572;2023-06-04T10:11:06;93392.78;;;13.20;62.41
74336;BME280;62755;-33.398;-70.572;2023-06-04T10:14:03;93380.31;;;13.10;62.94
74336;BME280;62755;-33.398;-70.572;2023-06-04T10:16:57;93368.00;;;13.09;62.88
74336;BME280;62755;-33.398;-70.572;2023-06-04T10:19:50;93352.28;;;13.07;63.40
74336;BME280;62755;-33.398;-70.572;2023-06-04T10:22:41;93340.06;;;13.03;64.01
74336;BME280;62755;-33.398;-70.572;2023-06-04T10:25:31;93331.44;;;12.76;64.96
74336;BME280;62755;-33.398;-70.572;2023-06-04T10:28:22;93341.69;;;12.65;65.32
74336;BME280;62755;-33.398;-70.572;2023-06-04T10:31:12;93331.78;;;12.62;65.27
74336;BME280;62755;-33.398;-70.572;2023-06-04T10:34:01;93333.63;;;12.65;64.54
74336;BME280;62755;-33.398;-70.572;2023-06-04T10:36:53;93332.13;;;12.64;65.97
74336;BME280;62755;-33.398;-70.572;2023-06-04T10:39:51;93328.75;;;12.60;66.76
74336;BME280;62755;-33.398;-70.572;2023-06-04T10:42:42;93330.63;;;12.43;67.24
74336;BME280;62755;-33.398;-70.572;2023-06-04T10:45:31;93337.59;;;12.41;67.21
74336;BME280;62755;-33.398;-70.572;2023-06-04T10:48:21;93326.53;;;12.55;66.79
74336;BME280;62755;-33.398;-70.572;2023-06-04T10:51:10;93341.19;;;12.70;66.92
74336;BME280;62755;-33.398;-70.572;2023-06-04T10:54:01;93337.78;;;12.85;66.50
74336;BME280;62755;-33.398;-70.572;2023-06-04T10:56:52;93347.19;;;12.93;66.10
74336;BME280;62755;-33.398;-70.572;2023-06-04T10:59:42;93346.47;;;13.09;66.62
74336;BME280;62755;-33.398;-70.572;2023-06-04T11:02:53;93356.44;;;13.28;66.14
74336;BME280;62755;-33.398;-70.572;2023-06-04T11:05:44;93358.59;;;13.33;67.57
74336;BME280;62755;-33.398;-70.572;2023-06-04T11:08:34;93369.22;;;13.40;66.69
74336;BME280;62755;-33.398;-70.572;2023-06-04T11:11:29;93374.44;;;13.47;66.83
74336;BME280;62755;-33.398;-70.572;2023-06-04T11:14:18;93374.69;;;13.37;65.53
74336;BME280;62755;-33.398;-70.572;2023-06-04T11:17:12;93374.28;;;13.22;65.43
74336;BME280;62755;-33.398;-70.572;2023-06-04T11:20:02;93377.91;;;12.96;65.54
74336;BME280;62755;-33.398;-70.572;2023-06-04T11:22:54;93376.38;;;12.79;66.04
74336;BME280;62755;-33.398;-70.572;2023-06-04T11:25:44;93390.69;;;12.92;68.08
74336;BME280;62755;-33.398;-70.572;2023-06-04T11:28:36;93379.34;;;13.00;69.89
74336;BME280;62755;-33.398;-70.572;2023-06-04T11:31:25;93381.56;;;13.05;71.21
74336;BME280;62755;-33.398;-70.572;2023-06-04T11:34:23;93390.19;;;13.16;71.06
74336;BME280;62755;-33.398;-70.572;2023-06-04T11:37:12;93378.53;;;13.03;71.04
74336;BME280;62755;-33.398;-70.572;2023-06-04T11:40:03;93394.63;;;13.07;71.69
74336;BME280;62755;-33.398;-70.572;2023-06-04T11:42:53;93400.75;;;13.07;70.45
74336;BME280;62755;-33.398;-70.572;2023-06-04T11:45:45;93391.47;;;12.73;70.19
74336;BME280;62755;-33.398;-70.572;2023-06-04T11:48:34;93397.69;;;12.70;70.31
74336;BME280;62755;-33.398;-70.572;2023-06-04T11:51:24;93411.56;;;12.68;70.06
74336;BME280;62755;-33.398;-70.572;2023-06-04T11:54:13;93417.91;;;12.78;68.61
74336;BME280;62755;-33.398;-70.572;2023-06-04T11:57:03;93418.91;;;12.84;67.82
74336;BME280;62755;-33.398;-70.572;2023-06-04T11:59:54;93421.28;;;12.82;68.12
74336;BME280;62755;-33.398;-70.572;2023-06-04T12:02:51;93419.91;;;12.74;67.38
74336;BME280;62755;-33.398;-70.572;2023-06-04T12:05:40;93413.09;;;12.69;67.93
74336;BME280;62755;-33.398;-70.572;2023-06-04T12:08:30;93412.31;;;12.69;67.58
74336;BME280;62755;-33.398;-70.572;2023-06-04T12:11:29;93407.81;;;12.82;68.06
74336;BME280;62755;-33.398;-70.572;2023-06-04T12:14:19;93410.50;;;12.82;67.82
74336;BME280;62755;-33.398;-70.572;2023-06-04T12:17:09;93414.38;;;12.81;69.16
74336;BME280;62755;-33.398;-70.572;2023-06-04T12:20:00;93414.47;;;12.77;68.55
74336;BME280;62755;-33.398;-70.572;2023-06-04T12:22:52;93405.81;;;12.86;68.44
74336;BME280;62755;-33.398;-70.572;2023-06-04T12:25:41;93410.53;;;12.98;66.34
74336;BME280;62755;-33.398;-70.572;2023-06-04T12:28:30;93407.03;;;13.01;64.82
74336;BME280;62755;-33.398;-70.572;2023-06-04T12:31:21;93401.66;;;13.01;64.27
74336;BME280;62755;-33.398;-70.572;2023-06-04T12:34:10;93399.16;;;13.10;63.60
74336;BME280;62755;-33.398;-70.572;2023-06-04T12:37:02;93405.25;;;13.30;63.42
74336;BME280;62755;-33.398;-70.572;2023-06-04T12:39:52;93413.84;;;13.41;63.30
74336;BME280;62755;-33.398;-70.572;2023-06-04T12:42:42;93414.84;;;13.47;62.92
74336;BME280;62755;-33.398;-70.572;2023-06-04T12:45:31;93422.16;;;13.47;63.68
74336;BME280;62755;-33.398;-70.572;2023-06-04T12:48:21;93423.75;;;13.60;64.02
74336;BME280;62755;-33.398;-70.572;2023-06-04T12:51:10;93433.63;;;13.67;64.88
74336;BME280;62755;-33.398;-70.572;2023-06-04T12:54:01;93440.88;;;13.70;64.77
74336;BME280;62755;-33.398;-70.572;2023-06-04T12:56:50;93442.63;;;13.92;63.73
74336;BME280;62755;-33.398;-70.572;2023-06-04T12:59:39;93449.69;;;14.02;62.96
74336;BME280;62755;-33.398;-70.572;2023-06-04T13:02:28;93450.84;;;14.01;63.27
74336;BME280;62755;-33.398;-70.572;2023-06-04T13:05:18;93458.13;;;13.88;63.16
74336;BME280;62755;-33.398;-70.572;2023-06-04T13:08:07;93465.53;;;14.00;62.69
74336;BME280;62755;-33.398;-70.572;2023-06-04T13:10:58;93463.84;;;14.06;62.93
74336;BME280;62755;-33.398;-70.572;2023-06-04T13:13:48;93473.28;;;14.15;62.72
74336;BME280;62755;-33.398;-70.572;2023-06-04T13:16:38;93476.81;;;14.11;62.19
74336;BME280;62755;-33.398;-70.572;2023-06-04T13:19:27;93487.94;;;14.30;62.17
74336;BME280;62755;-33.398;-70.572;2023-06-04T13:22:17;93492.16;;;14.15;63.07
74336;BME280;62755;-33.398;-70.572;2023-06-04T13:25:06;93497.56;;;14.31;62.31
74336;BME280;62755;-33.398;-70.572;2023-06-04T13:27:58;93503.09;;;14.40;61.72
74336;BME280;62755;-33.398;-70.572;2023-06-04T13:30:48;93505.22;;;14.32;61.51
74336;BME280;62755;-33.398;-70.572;2023-06-04T13:33:37;93507.06;;;14.35;61.54
74336;BME280;62755;-33.398;-70.572;2023-06-04T13:36:26;93504.25;;;14.55;60.50
74336;BME280;62755;-33.398;-70.572;2023-06-04T13:39:16;93513.00;;;15.29;58.48
74336;BME280;62755;-33.398;-70.572;2023-06-04T13:42:05;93484.28;;;15.85;56.07
74336;BME280;62755;-33.398;-70.572;2023-06-04T13:44:57;93476.75;;;16.27;54.60
74336;BME280;62755;-33.398;-70.572;2023-06-04T13:47:46;93470.84;;;17.18;52.89
74336;BME280;62755;-33.398;-70.572;2023-06-04T13:50:36;93484.84;;;17.47;51.78
74336;BME280;62755;-33.398;-70.572;2023-06-04T13:53:25;93484.88;;;18.18;49.85
74336;BME280;62755;-33.398;-70.572;2023-06-04T13:56:15;93504.88;;;18.96;47.95
74336;BME280;62755;-33.398;-70.572;2023-06-04T13:59:04;93508.78;;;18.77;48.18
74336;BME280;62755;-33.398;-70.572;2023-06-04T14:01:56;93520.69;;;18.62;49.11
74336;BME280;62755;-33.398;-70.572;2023-06-04T14:04:45;93516.66;;;17.69;52.16
74336;BME280;62755;-33.398;-70.572;2023-06-04T14:07:35;93498.34;;;17.29;53.43
74336;BME280;62755;-33.398;-70.572;2023-06-04T14:10:24;93532.19;;;17.25;54.26
74336;BME280;62755;-33.398;-70.572;2023-06-04T14:13:13;93543.88;;;17.43;53.60
74336;BME280;62755;-33.398;-70.572;2023-06-04T14:16:03;93535.97;;;17.27;54.22
74336;BME280;62755;-33.398;-70.572;2023-06-04T14:18:54;93525.81;;;17.19;54.52
74336;BME280;62755;-33.398;-70.572;2023-06-04T14:21:44;93482.91;;;17.17;54.81
74336;BME280;62755;-33.398;-70.572;2023-06-04T14:24:33;93458.06;;;17.19;55.11
74336;BME280;62755;-33.398;-70.572;2023-06-04T14:27:22;93478.41;;;17.85;53.18